Time;durP1;ratioP1;P1;durP2;ratioP2;P2;SDS_P1;SDS_P2;PMS_P1;PMS_P2;Temp;Humidity;BMP_temperature;BMP_pressure;BME280_temperature;BME280_humidity;BME280_pressure;Samples;Min_cycle;Max_cycle;Signal;HPM_P1;HPM_P2
2023/10/24 00:00:35;;;;;;;26.27;8.77;;;10.80;99.90;;;;;;4970659;28;20648;-58
2023/10/24 00:03:02;;;;;;;30.63;9.05;;;10.80;99.90;;;;;;4972540;28;20515;-58
2023/10/24 00:05:30;;;;;;;25.27;9.15;;;10.80;99.90;;;;;;4989991;28;20050;-58
2023/10/24 00:07:58;;;;;;;18.65;8.45;;;10.80;99.90;;;;;;4987312;28;20046;-58
2023/10/24 00:10:25;;;;;;;18.65;8.57;;;10.80;99.90;;;;;;4981316;28;20043;-58
2023/10/24 00:12:53;;;;;;;28.40;9.23;;;10.80;99.90;;;;;;4972189;28;20043;-58
2023/10/24 00:15:20;;;;;;;26.20;9.10;;;10.80;99.90;;;;;;4980400;28;20042;-57
2023/10/24 00:17:49;;;;;;;23.70;8.45;;;10.90;99.90;;;;;;4980983;28;20050;-58
2023/10/24 00:20:17;;;;;;;28.35;8.60;;;10.90;99.90;;;;;;4975861;28;20078;-57
2023/10/24 00:22:44;;;;;;;16.58;7.72;;;10.90;99.90;;;;;;4987612;28;20054;-59
2023/10/24 00:25:13;;;;;;;21.77;9.05;;;10.90;99.90;;;;;;4982315;28;20062;-57
2023/10/24 00:27:41;;;;;;;25.25;9.68;;;10.90;99.90;;;;;;4970336;28;20410;-57
2023/10/24 00:30:10;;;;;;;23.77;8.98;;;10.90;99.90;;;;;;4988824;28;20046;-56
2023/10/24 00:32:38;;;;;;;20.88;8.93;;;10.90;99.90;;;;;;4984416;28;20046;-57
2023/10/24 00:35:06;;;;;;;22.73;7.95;;;10.90;99.90;;;;;;4971208;28;20065;-56
2023/10/24 00:37:33;;;;;;;27.85;8.70;;;10.90;99.90;;;;;;4969462;28;20475;-58
2023/10/24 00:40:04;;;;;;;21.88;8.60;;;10.80;99.90;;;;;;4985869;28;20050;-57
2023/10/24 00:42:32;;;;;;;24.63;8.77;;;10.90;99.90;;;;;;4989436;28;20042;-58
2023/10/24 00:45:00;;;;;;;23.85;8.70;;;10.90;99.90;;;;;;4987846;28;20409;-58
2023/10/24 00:47:28;;;;;;;25.25;8.70;;;10.80;99.90;;;;;;4989374;28;20431;-58
2023/10/24 00:49:55;;;;;;;24.08;8.45;;;10.90;99.90;;;;;;4985975;28;20536;-58
2023/10/24 00:52:23;;;;;;;21.40;10.32;;;10.90;99.90;;;;;;4988935;28;20054;-59
2023/10/24 00:54:54;;;;;;;25.08;10.20;;;10.90;99.90;;;;;;4987989;28;20042;-58
2023/10/24 00:57:23;;;;;;;26.13;10.38;;;10.90;99.90;;;;;;4988119;28;20054;-59
2023/10/24 00:59:52;;;;;;;26.25;9.95;;;10.90;99.90;;;;;;4988011;28;20565;-57
2023/10/24 01:02:20;;;;;;;22.70;10.02;;;10.90;99.90;;;;;;4986066;28;20485;-58
2023/10/24 01:04:53;;;;;;;24.40;10.32;;;10.90;99.90;;;;;;4983240;28;20550;-57
2023/10/24 01:07:21;;;;;;;26.13;10.15;;;10.80;99.90;;;;;;4980499;28;20054;-59
2023/10/24 01:09:49;;;;;;;27.20;9.80;;;10.80;99.90;;;;;;4986582;28;20042;-58
2023/10/24 01:12:17;;;;;;;23.70;10.25;;;10.80;99.90;;;;;;4989056;28;20526;-58
2023/10/24 01:14:44;;;;;;;34.88;10.93;;;10.80;99.90;;;;;;4980820;28;20050;-58
2023/10/24 01:17:13;;;;;;;23.13;10.98;;;10.80;99.90;;;;;;4986215;28;20042;-58
2023/10/24 01:19:41;;;;;;;30.67;11.10;;;10.80;99.90;;;;;;4979293;28;20480;-58
2023/10/24 01:22:08;;;;;;;30.63;11.15;;;10.80;99.90;;;;;;4972982;28;20043;-58
2023/10/24 01:24:36;;;;;;;27.83;10.82;;;10.80;99.90;;;;;;4980497;28;20057;-57
2023/10/24 01:27:04;;;;;;;30.88;10.48;;;10.80;99.90;;;;;;4982025;28;20503;-58
2023/10/24 01:29:32;;;;;;;27.15;10.18;;;10.80;99.90;;;;;;4984318;28;20469;-57
2023/10/24 01:32:00;;;;;;;25.90;10.50;;;10.80;99.90;;;;;;4974703;28;20047;-58
2023/10/24 01:34:28;;;;;;;24.15;9.65;;;10.70;99.90;;;;;;4990593;28;20049;-59
2023/10/24 01:36:56;;;;;;;30.00;10.73;;;10.80;99.90;;;;;;4973444;28;20043;-58
2023/10/24 01:39:24;;;;;;;22.77;10.32;;;10.80;99.90;;;;;;4988658;28;20042;-58
2023/10/24 01:41:51;;;;;;;27.88;11.00;;;10.70;99.90;;;;;;4991075;28;20046;-58
2023/10/24 01:44:19;;;;;;;26.13;9.88;;;10.70;99.90;;;;;;4991445;28;20498;-59
2023/10/24 01:46:47;;;;;;;25.45;9.77;;;10.70;99.90;;;;;;4964405;28;20043;-57
2023/10/24 01:49:15;;;;;;;22.02;10.35;;;10.70;99.90;;;;;;4985578;28;20049;-57
2023/10/24 01:51:43;;;;;;;21.45;8.77;;;10.70;99.90;;;;;;4990458;28;20531;-57
2023/10/24 01:54:10;;;;;;;24.63;8.15;;;10.60;99.90;;;;;;4991588;28;20061;-56
2023/10/24 01:56:38;;;;;;;22.30;9.02;;;10.60;99.90;;;;;;4981516;28;20047;-56
2023/10/24 01:59:07;;;;;;;21.02;8.48;;;10.60;99.90;;;;;;4965140;28;20050;-57
2023/10/24 02:01:34;;;;;;;25.95;9.82;;;10.60;99.90;;;;;;4970910;28;20049;-57
2023/10/24 02:04:02;;;;;;;15.63;9.00;;;10.50;99.90;;;;;;4979802;28;20053;-57
2023/10/24 02:06:30;;;;;;;22.15;9.48;;;10.50;99.90;;;;;;4987181;28;20049;-57
2023/10/24 02:08:57;;;;;;;27.40;9.15;;;10.50;99.90;;;;;;4990532;28;20487;-56
2023/10/24 02:11:26;;;;;;;21.92;9.32;;;10.50;99.90;;;;;;4990191;28;20065;-56
2023/10/24 02:13:54;;;;;;;27.70;9.48;;;10.40;99.90;;;;;;4986534;28;20046;-56
2023/10/24 02:16:24;;;;;;;25.02;9.95;;;10.40;99.90;;;;;;4984704;28;20435;-56
2023/10/24 02:18:52;;;;;;;26.83;9.52;;;10.30;99.90;;;;;;4990114;28;20070;-57
2023/10/24 02:21:19;;;;;;;26.88;9.48;;;10.20;99.90;;;;;;4986081;28;20047;-57
2023/10/24 02:23:47;;;;;;;28.10;10.48;;;10.20;99.90;;;;;;4990315;28;20046;-56
2023/10/24 02:26:15;;;;;;;25.33;9.98;;;10.10;99.90;;;;;;4992186;28;20376;-56
2023/10/24 02:28:43;;;;;;;28.85;10.55;;;10.10;99.90;;;;;;4993800;28;20043;-56
2023/10/24 02:31:11;;;;;;;29.70;11.30;;;10.10;99.90;;;;;;4981783;28;20043;-58
2023/10/24 02:33:38;;;;;;;31.73;10.57;;;10.00;99.90;;;;;;4980449;28;20653;-56
2023/10/24 02:36:10;;;;;;;23.00;9.60;;;10.00;99.90;;;;;;4993661;28;20061;-56
2023/10/24 02:38:38;;;;;;;27.00;9.98;;;10.00;99.90;;;;;;4992814;28;20379;-58
2023/10/24 02:41:06;;;;;;;25.67;11.32;;;10.00;99.90;;;;;;4974222;28;20055;-59
2023/10/24 02:43:33;;;;;;;33.25;11.40;;;9.90;99.90;;;;;;4978811;28;20134;-59
2023/10/24 02:46:04;;;;;;;31.55;10.50;;;9.90;99.90;;;;;;4994517;28;20047;-59
2023/10/24 02:48:32;;;;;;;29.05;11.57;;;9.90;99.90;;;;;;4983115;28;20045;-59
2023/10/24 02:51:00;;;;;;;32.28;11.23;;;9.80;99.90;;;;;;4989492;28;20053;-60
2023/10/24 02:53:28;;;;;;;27.65;11.13;;;9.90;99.90;;;;;;4992920;28;20050;-59
2023/10/24 02:56:01;;;;;;;27.13;11.60;;;9.80;99.90;;;;;;4993449;28;20039;-59
2023/10/24 02:58:29;;;;;;;27.13;11.30;;;9.80;99.90;;;;;;4993492;28;20053;-59
2023/10/24 03:01:03;;;;;;;31.55;11.38;;;9.70;99.90;;;;;;4986464;28;20042;-59
2023/10/24 03:03:32;;;;;;;37.67;12.77;;;9.80;99.90;;;;;;4989480;28;20039;-59
2023/10/24 03:06:00;;;;;;;29.90;11.48;;;9.70;99.90;;;;;;4993607;28;20058;-59
2023/10/24 03:08:28;;;;;;;36.33;12.43;;;9.70;99.90;;;;;;4979997;28;20047;-58
2023/10/24 03:10:56;;;;;;;33.15;12.02;;;9.70;99.90;;;;;;4977770;28;20406;-59
2023/10/24 03:13:24;;;;;;;37.67;12.50;;;9.70;99.90;;;;;;4975695;28;20046;-59
2023/10/24 03:15:52;;;;;;;25.95;11.75;;;9.60;99.90;;;;;;4992098;28;20047;-59
2023/10/24 03:18:19;;;;;;;31.48;13.57;;;9.60;99.90;;;;;;4983824;28;20051;-59
2023/10/24 03:21:04;;;;;;;35.60;12.57;;;9.70;99.90;;;;;;4952732;28;20089;-59
2023/10/24 03:23:32;;;;;;;36.35;14.05;;;9.70;99.90;;;;;;4983085;28;20061;-59
2023/10/24 03:26:03;;;;;;;36.33;13.57;;;9.70;99.90;;;;;;4993158;28;20042;-59
2023/10/24 03:28:33;;;;;;;40.42;13.60;;;9.70;99.90;;;;;;4991065;28;20509;-58
2023/10/24 03:31:02;;;;;;;32.03;13.50;;;9.70;99.90;;;;;;4977978;28;20390;-59
2023/10/24 03:33:32;;;;;;;36.25;12.88;;;9.80;99.90;;;;;;4976503;28;20066;-59
2023/10/24 03:36:00;;;;;;;34.53;13.00;;;9.80;99.90;;;;;;4993212;28;20598;-59
2023/10/24 03:38:29;;;;;;;32.55;13.63;;;9.80;99.90;;;;;;4982246;28;20058;-59
2023/10/24 03:40:57;;;;;;;33.95;13.23;;;9.80;99.90;;;;;;4986040;28;20042;-59
2023/10/24 03:43:28;;;;;;;37.45;14.20;;;9.90;99.90;;;;;;5001611;28;20119;-59
2023/10/24 03:45:56;;;;;;;28.42;12.82;;;9.90;99.90;;;;;;4988296;28;20054;-59
2023/10/24 03:48:23;;;;;;;30.67;14.80;;;9.90;99.90;;;;;;4980697;28;20054;-59
2023/10/24 03:50:51;;;;;;;39.30;14.02;;;9.90;99.90;;;;;;4992220;28;20045;-59
2023/10/24 03:53:18;;;;;;;37.35;14.68;;;9.90;99.90;;;;;;4993537;28;20057;-59
2023/10/24 03:55:55;;;;;;;37.28;14.13;;;9.80;99.90;;;;;;4988293;28;20049;-57
2023/10/24 03:58:23;;;;;;;36.58;13.98;;;9.80;99.90;;;;;;4985296;28;20495;-59
2023/10/24 04:00:50;;;;;;;36.40;14.85;;;9.80;99.90;;;;;;4980751;28;20058;-58
2023/10/24 04:03:19;;;;;;;37.10;14.18;;;9.80;99.90;;;;;;4974346;28;20050;-57
2023/10/24 04:05:49;;;;;;;38.45;15.10;;;9.80;99.90;;;;;;4980440;28;20046;-58
2023/10/24 04:08:16;;;;;;;35.03;12.50;;;9.90;99.90;;;;;;4984338;28;20051;-58
2023/10/24 04:10:44;;;;;;;38.17;13.50;;;9.80;99.90;;;;;;4982529;28;20070;-57
2023/10/24 04:13:12;;;;;;;38.20;13.13;;;9.80;99.90;;;;;;4980364;28;20062;-56
2023/10/24 04:15:39;;;;;;;32.90;13.02;;;9.80;99.90;;;;;;4989177;28;20047;-56
2023/10/24 04:18:07;;;;;;;32.80;11.85;;;9.80;99.90;;;;;;4993148;28;20054;-57
2023/10/24 04:20:35;;;;;;;33.47;12.77;;;9.80;99.90;;;;;;4989672;28;20050;-56
2023/10/24 04:23:03;;;;;;;39.35;13.30;;;9.80;99.90;;;;;;4993249;28;20479;-57
2023/10/24 04:25:31;;;;;;;30.40;12.60;;;9.80;99.90;;;;;;4992898;28;20510;-56
2023/10/24 04:27:59;;;;;;;39.33;13.80;;;9.70;99.90;;;;;;4993029;28;20046;-56
2023/10/24 04:30:27;;;;;;;38.53;14.07;;;9.70;99.90;;;;;;4990464;28;20050;-57
2023/10/24 04:32:55;;;;;;;41.92;14.45;;;9.80;99.90;;;;;;4980835;28;20042;-56
2023/10/24 04:35:23;;;;;;;45.90;14.52;;;9.70;99.90;;;;;;4992942;28;20518;-56
2023/10/24 04:37:50;;;;;;;41.67;14.57;;;9.80;99.90;;;;;;4992776;28;20046;-56
2023/10/24 04:40:19;;;;;;;41.47;14.65;;;9.80;99.90;;;;;;4992534;28;20482;-56
2023/10/24 04:42:46;;;;;;;38.72;14.40;;;9.80;99.90;;;;;;4992519;28;20050;-56
2023/10/24 04:45:14;;;;;;;40.80;14.23;;;9.80;99.90;;;;;;4992646;28;20061;-56
2023/10/24 04:47:42;;;;;;;38.33;14.93;;;9.80;99.90;;;;;;4973698;28;20050;-59
2023/10/24 04:50:11;;;;;;;41.38;15.32;;;9.80;99.90;;;;;;4983277;28;20050;-58
2023/10/24 04:52:38;;;;;;;41.33;14.32;;;9.80;99.90;;;;;;4989163;28;20046;-57
2023/10/24 04:55:06;;;;;;;36.17;13.80;;;9.80;99.90;;;;;;4968716;28;20051;-58
2023/10/24 04:57:34;;;;;;;47.95;15.25;;;9.80;99.90;;;;;;4970323;28;20038;-58
2023/10/24 05:00:03;;;;;;;38.40;14.40;;;9.80;99.90;;;;;;4969453;28;20054;-57
2023/10/24 05:02:31;;;;;;;41.75;14.70;;;9.80;99.90;;;;;;4968968;28;20211;-57
2023/10/24 05:04:59;;;;;;;36.72;14.77;;;9.80;99.90;;;;;;4975333;28;20049;-59
2023/10/24 05:07:26;;;;;;;32.00;14.38;;;9.80;99.90;;;;;;4984673;28;20057;-58
2023/10/24 05:09:54;;;;;;;33.88;13.88;;;9.80;99.90;;;;;;4985524;28;20041;-59
2023/10/24 05:12:22;;;;;;;37.63;14.48;;;9.70;99.90;;;;;;4988165;28;20046;-56
2023/10/24 05:14:49;;;;;;;43.92;14.25;;;9.80;99.90;;;;;;4988511;28;20045;-56
2023/10/24 05:17:18;;;;;;;40.00;13.65;;;9.70;99.90;;;;;;4987847;28;20053;-58
2023/10/24 05:19:45;;;;;;;46.47;16.20;;;9.70;99.90;;;;;;4978615;28;20057;-58
2023/10/24 05:22:16;;;;;;;42.15;14.48;;;9.70;99.90;;;;;;4981323;28;20402;-58
2023/10/24 05:24:43;;;;;;;39.08;13.73;;;9.70;99.90;;;;;;4983016;28;20053;-58
2023/10/24 05:27:11;;;;;;;35.17;13.48;;;9.70;99.90;;;;;;4982434;28;20558;-56
2023/10/24 05:29:38;;;;;;;35.90;13.80;;;9.70;99.90;;;;;;4983720;28;20049;-58
2023/10/24 05:32:06;;;;;;;39.22;13.77;;;9.70;99.90;;;;;;4978843;28;20074;-58
2023/10/24 05:34:34;;;;;;;37.03;13.02;;;9.70;99.90;;;;;;4983499;28;20046;-58
2023/10/24 05:37:02;;;;;;;38.15;13.20;;;9.70;99.90;;;;;;4973591;28;20406;-58
2023/10/24 05:39:30;;;;;;;35.80;13.52;;;9.70;99.90;;;;;;4971125;28;20406;-59
2023/10/24 05:41:58;;;;;;;52.15;14.80;;;9.70;99.90;;;;;;4971427;28;20077;-57
2023/10/24 05:44:26;;;;;;;35.17;14.20;;;9.70;99.90;;;;;;4983344;28;20375;-58
2023/10/24 05:46:53;;;;;;;40.50;14.77;;;9.70;99.90;;;;;;4973196;28;20043;-58
2023/10/24 05:49:23;;;;;;;31.05;12.82;;;9.70;99.90;;;;;;4971174;28;20050;-58
2023/10/24 05:51:52;;;;;;;39.00;13.98;;;9.70;99.90;;;;;;4966422;28;20055;-58
2023/10/24 05:54:19;;;;;;;32.88;13.73;;;9.70;99.90;;;;;;4979066;28;20169;-58
2023/10/24 05:56:47;;;;;;;36.90;13.85;;;9.70;99.90;;;;;;4974460;28;20050;-57
2023/10/24 05:59:14;;;;;;;33.58;14.02;;;9.70;99.90;;;;;;4985669;28;20054;-58
2023/10/24 06:01:44;;;;;;;38.00;13.60;;;9.80;99.90;;;;;;4975510;28;20062;-58
2023/10/24 06:04:12;;;;;;;32.45;12.45;;;9.80;99.90;;;;;;4970758;28;20050;-57
2023/10/24 06:06:40;;;;;;;22.67;10.30;;;9.70;99.90;;;;;;4974975;28;20063;-59
2023/10/24 06:09:12;;;;;;;26.17;9.85;;;9.70;99.90;;;;;;4973273;28;20049;-58
2023/10/24 06:11:40;;;;;;;19.35;8.02;;;9.70;99.90;;;;;;4985969;28;20042;-59
2023/10/24 06:14:08;;;;;;;14.00;6.95;;;9.70;99.90;;;;;;4989181;28;20046;-58
2023/10/24 06:16:36;;;;;;;14.05;6.75;;;9.70;99.90;;;;;;4984455;28;20054;-58
2023/10/24 06:19:03;;;;;;;14.18;6.47;;;9.80;99.90;;;;;;4986903;28;20039;-57
2023/10/24 06:21:31;;;;;;;9.73;5.70;;;9.80;99.90;;;;;;4990412;28;20046;-58
2023/10/24 06:23:59;;;;;;;17.88;6.88;;;9.80;99.90;;;;;;4980803;28;20058;-59
2023/10/24 06:26:27;;;;;;;13.13;6.35;;;9.80;99.90;;;;;;4991578;28;20057;-57
2023/10/24 06:28:55;;;;;;;11.40;6.53;;;9.80;99.90;;;;;;4991597;28;20053;-57
2023/10/24 06:31:22;;;;;;;15.70;6.72;;;9.90;99.90;;;;;;4982000;28;20050;-58
2023/10/24 06:33:50;;;;;;;17.15;7.25;;;9.80;99.90;;;;;;4981144;28;20049;-58
2023/10/24 06:36:21;;;;;;;14.65;7.05;;;9.90;99.90;;;;;;4991836;28;20047;-58
2023/10/24 06:38:48;;;;;;;10.97;6.00;;;9.80;99.90;;;;;;4990502;28;20044;-56
2023/10/24 06:41:16;;;;;;;15.90;7.20;;;9.80;99.90;;;;;;4989145;28;20065;-59
2023/10/24 06:43:44;;;;;;;15.38;6.93;;;9.90;99.90;;;;;;4979493;28;20043;-58
2023/10/24 06:46:12;;;;;;;12.95;7.00;;;9.90;99.90;;;;;;4985538;28;20503;-58
2023/10/24 06:48:40;;;;;;;14.68;7.95;;;9.80;99.90;;;;;;4979044;28;20394;-57
2023/10/24 06:51:08;;;;;;;20.50;7.90;;;9.90;99.90;;;;;;4987988;28;20057;-57
2023/10/24 06:53:35;;;;;;;22.55;8.10;;;9.90;99.90;;;;;;4982506;28;20482;-56
2023/10/24 06:56:03;;;;;;;16.63;7.70;;;9.90;99.90;;;;;;4986545;28;20042;-57
2023/10/24 06:58:31;;;;;;;20.60;8.77;;;9.90;99.90;;;;;;4986306;28;20053;-56
2023/10/24 07:00:59;;;;;;;17.92;8.02;;;9.80;99.90;;;;;;4977503;28;20054;-57
2023/10/24 07:03:27;;;;;;;17.60;8.68;;;9.90;99.90;;;;;;4986710;28;20058;-57
2023/10/24 07:05:55;;;;;;;17.67;9.27;;;9.80;99.90;;;;;;4979167;28;20475;-56
2023/10/24 07:08:23;;;;;;;22.17;8.88;;;9.80;99.90;;;;;;4986460;28;20062;-55
2023/10/24 07:10:50;;;;;;;17.50;9.07;;;9.80;99.90;;;;;;4988298;28;20054;-55
2023/10/24 07:13:18;;;;;;;23.83;9.00;;;9.80;99.90;;;;;;4987074;28;20422;-55
2023/10/24 07:15:48;;;;;;;14.73;8.45;;;9.80;99.90;;;;;;4987935;28;20491;-56
2023/10/24 07:18:16;;;;;;;21.30;8.85;;;9.80;99.90;;;;;;4987699;28;20042;-56
2023/10/24 07:20:43;;;;;;;24.80;9.13;;;9.80;99.90;;;;;;4974092;28;20043;-57
2023/10/24 07:23:11;;;;;;;24.80;9.88;;;9.80;99.90;;;;;;4972691;28;20592;-59
2023/10/24 07:25:39;;;;;;;19.80;9.23;;;9.80;99.90;;;;;;4988085;28;20061;-59
2023/10/24 07:28:06;;;;;;;21.05;9.50;;;9.80;99.90;;;;;;4986906;28;20058;-58
2023/10/24 07:30:34;;;;;;;17.92;8.60;;;9.80;99.90;;;;;;4984937;28;20042;-58
2023/10/24 07:33:02;;;;;;;18.95;8.80;;;9.80;99.90;;;;;;4981522;28;20053;-58
2023/10/24 07:35:29;;;;;;;18.50;9.00;;;9.90;99.90;;;;;;4980335;28;20084;-58
2023/10/24 07:37:57;;;;;;;20.88;9.93;;;9.80;99.90;;;;;;4982723;28;20055;-58
2023/10/24 07:40:25;;;;;;;19.85;8.45;;;9.90;99.90;;;;;;4969874;28;20043;-57
2023/10/24 07:42:52;;;;;;;20.40;9.13;;;9.80;99.90;;;;;;4987951;28;20058;-57
2023/10/24 07:45:20;;;;;;;18.48;8.55;;;9.80;99.90;;;;;;4990514;28;20379;-58
2023/10/24 07:47:48;;;;;;;16.17;8.05;;;9.90;99.90;;;;;;4989202;28;20057;-57
2023/10/24 07:50:16;;;;;;;16.25;8.25;;;9.90;99.90;;;;;;4976306;28;20047;-57
2023/10/24 07:52:43;;;;;;;17.77;8.32;;;9.90;99.90;;;;;;4971504;28;20553;-58
2023/10/24 07:55:11;;;;;;;19.08;8.93;;;9.90;99.90;;;;;;4987668;28;20058;-58
2023/10/24 07:57:39;;;;;;;20.15;8.52;;;9.90;99.90;;;;;;4977760;28;20054;-57
2023/10/24 08:00:07;;;;;;;23.17;8.95;;;9.90;99.90;;;;;;4972117;28;20043;-58
2023/10/24 08:02:38;;;;;;;17.70;9.20;;;10.00;99.90;;;;;;4980065;28;20047;-58
2023/10/24 08:05:07;;;;;;;19.75;8.75;;;9.90;99.90;;;;;;4970646;28;20047;-58
2023/10/24 08:07:36;;;;;;;18.67;9.25;;;10.00;99.90;;;;;;4973973;28;20495;-57
2023/10/24 08:10:05;;;;;;;16.30;8.70;;;10.00;99.90;;;;;;4979415;28;20047;-58
2023/10/24 08:12:33;;;;;;;25.15;9.00;;;10.00;99.90;;;;;;4970170;28;20510;-57
2023/10/24 08:15:01;;;;;;;21.77;8.82;;;10.00;99.90;;;;;;4986163;28;20043;-57
2023/10/24 08:17:29;;;;;;;21.63;9.48;;;10.00;99.90;;;;;;4972070;28;20051;-58
2023/10/24 08:19:57;;;;;;;28.02;10.23;;;10.10;99.90;;;;;;4981071;28;20034;-58
2023/10/24 08:22:25;;;;;;;19.70;9.82;;;10.10;99.90;;;;;;4977996;28;20069;-58
2023/10/24 08:24:53;;;;;;;21.50;9.57;;;10.20;99.90;;;;;;4982646;28;20066;-58
2023/10/24 08:27:20;;;;;;;25.42;11.10;;;10.20;99.90;;;;;;4971171;28;20050;-57
2023/10/24 08:29:48;;;;;;;23.00;11.10;;;10.20;99.90;;;;;;4989877;28;20062;-58
2023/10/24 08:32:15;;;;;;;19.52;10.85;;;10.30;99.90;;;;;;4979684;28;20057;-58
2023/10/24 08:34:43;;;;;;;24.15;10.65;;;10.30;99.90;;;;;;4986321;28;20048;-58
2023/10/24 08:37:12;;;;;;;20.73;9.52;;;10.30;99.90;;;;;;4989677;28;20042;-58
2023/10/24 08:39:40;;;;;;;23.70;11.15;;;10.30;99.90;;;;;;4989613;28;20061;-58
2023/10/24 08:42:11;;;;;;;27.17;11.20;;;10.40;99.90;;;;;;4980699;28;20050;-58
2023/10/24 08:44:40;;;;;;;25.67;11.20;;;10.40;99.90;;;;;;4987485;28;20042;-57
2023/10/24 08:47:13;;;;;;;28.23;10.52;;;10.50;99.90;;;;;;4988225;28;20050;-59
2023/10/24 08:49:41;;;;;;;24.42;10.43;;;10.60;99.90;;;;;;4970868;28;20035;-57
2023/10/24 08:52:10;;;;;;;24.10;11.50;;;10.60;99.90;;;;;;4982946;28;20076;-58
2023/10/24 08:55:03;;;;;;;18.13;10.02;;;10.60;99.90;;;;;;4987963;28;20050;-58
2023/10/24 08:57:41;;;;;;;24.50;9.95;;;10.70;99.90;;;;;;4972758;28;20589;-58
2023/10/24 09:00:13;;;;;;;25.48;9.70;;;10.70;99.90;;;;;;4972231;28;20050;-58
2023/10/24 09:02:42;;;;;;;18.08;10.18;;;10.80;99.90;;;;;;4983341;28;20530;-58
2023/10/24 09:05:11;;;;;;;20.20;9.32;;;10.80;99.90;;;;;;4972263;28;20073;-57
2023/10/24 09:07:39;;;;;;;23.30;10.07;;;10.80;99.90;;;;;;4980836;28;20049;-58
2023/10/24 09:10:08;;;;;;;23.27;9.63;;;10.80;99.90;;;;;;4987874;28;20057;-58
2023/10/24 09:12:38;;;;;;;17.80;8.23;;;10.80;99.90;;;;;;4970626;28;20066;-58
2023/10/24 09:15:09;;;;;;;17.75;9.10;;;10.80;99.90;;;;;;4974650;28;20509;-58
2023/10/24 09:17:37;;;;;;;;;;;10.80;99.90;;;;;;4971892;28;20050;-58
2023/10/24 09:20:08;;;;;;;15.48;8.50;;;10.80;99.90;;;;;;4988799;28;19925;-58
2023/10/24 09:22:41;;;;;;;18.98;7.72;;;10.90;99.90;;;;;;4983315;28;20057;-58
2023/10/24 09:25:09;;;;;;;18.40;8.60;;;10.90;99.90;;;;;;4978578;28;20410;-58
2023/10/24 09:27:37;;;;;;;20.40;8.73;;;11.00;99.90;;;;;;4972770;28;20490;-58
2023/10/24 09:30:12;;;;;;;16.13;8.02;;;11.00;99.90;;;;;;4988805;28;20062;-57
2023/10/24 09:32:43;;;;;;;14.40;8.30;;;11.00;99.90;;;;;;4981191;28;20043;-58
2023/10/24 09:35:10;;;;;;;14.90;7.95;;;11.00;99.90;;;;;;4969137;28;20073;-57
2023/10/24 09:37:44;;;;;;;14.65;7.60;;;11.50;99.90;;;;;;4985006;28;20061;-58
2023/10/24 09:40:12;;;;;;;15.02;7.60;;;11.00;99.90;;;;;;4986290;28;20046;-58
2023/10/24 09:42:41;;;;;;;16.95;7.25;;;11.10;99.90;;;;;;4972807;28;20055;-60
2023/10/24 09:45:11;;;;;;;18.63;7.32;;;11.10;99.90;;;;;;4988433;28;20058;-59
2023/10/24 09:47:40;;;;;;;11.52;7.13;;;11.10;99.90;;;;;;4985120;28;20050;-59
2023/10/24 09:50:13;;;;;;;15.68;7.85;;;11.20;99.90;;;;;;4974896;28;20062;-59
2023/10/24 09:52:42;;;;;;;14.50;8.00;;;11.20;99.90;;;;;;4983244;28;20125;-59
2023/10/24 09:55:13;;;;;;;14.55;6.88;;;11.30;99.90;;;;;;4967465;28;20051;-56
2023/10/24 09:57:44;;;;;;;14.15;8.18;;;11.30;99.90;;;;;;4973477;28;20047;-59
2023/10/24 10:00:12;;;;;;;16.15;7.82;;;11.30;99.90;;;;;;4987244;28;20057;-58
2023/10/24 10:02:44;;;;;;;19.05;9.15;;;11.40;99.90;;;;;;4988507;28;20050;-58
2023/10/24 10:05:14;;;;;;;16.08;8.20;;;11.40;99.90;;;;;;4971370;28;20078;-58
2023/10/24 10:07:48;;;;;;;18.40;8.25;;;11.40;99.90;;;;;;4972823;28;20050;-58
2023/10/24 10:10:16;;;;;;;17.67;9.05;;;11.40;99.90;;;;;;4985278;28;20550;-57
2023/10/24 10:12:46;;;;;;;19.40;8.98;;;11.40;99.90;;;;;;4970305;28;20498;-56
2023/10/24 10:15:47;;;;;;;21.25;9.48;;;11.40;99.90;;;;;;4968360;28;20070;-57
2023/10/24 10:18:47;;;;;;;14.70;8.52;;;11.50;99.90;;;;;;4977499;28;20046;-57
2023/10/24 10:21:42;;;;;;;17.63;8.40;;;11.50;99.90;;;;;;4981608;28;20061;-57
2023/10/24 10:24:29;;;;;;;16.45;8.57;;;11.50;99.90;;;;;;4986791;28;20050;-58
2023/10/24 10:27:20;;;;;;;21.85;9.20;;;11.60;99.90;;;;;;4978413;28;20039;-59
2023/10/24 10:30:14;;;;;;;17.30;8.68;;;11.70;99.90;;;;;;4968001;28;20053;-58
2023/10/24 10:33:01;;;;;;;16.50;8.65;;;11.70;99.90;;;;;;4979839;28;20055;-58
2023/10/24 10:36:07;;;;;;;19.35;8.93;;;11.80;99.90;;;;;;4988129;28;20490;-58
2023/10/24 10:38:39;;;;;;;15.07;8.85;;;11.90;99.90;;;;;;4986467;28;20053;-59
2023/10/24 10:41:33;;;;;;;17.67;9.10;;;11.90;99.90;;;;;;4984867;28;20057;-58
2023/10/24 10:44:05;;;;;;;14.98;8.40;;;11.90;99.90;;;;;;4978004;28;20057;-58
2023/10/24 10:46:33;;;;;;;16.48;8.50;;;11.90;99.90;;;;;;4988026;28;20482;-57
2023/10/24 10:49:07;;;;;;;14.88;7.25;;;11.90;99.90;;;;;;4991042;28;20084;-59
2023/10/24 10:51:37;;;;;;;15.52;8.35;;;11.90;99.90;;;;;;4991498;28;20042;-57
2023/10/24 10:54:34;;;;;;;14.65;8.32;;;12.00;99.90;;;;;;4985753;28;20042;-58
2023/10/24 10:57:04;;;;;;;15.85;7.72;;;12.00;99.90;;;;;;4961566;28;20053;-57
2023/10/24 11:00:00;;;;;;;15.07;8.00;;;12.00;99.90;;;;;;4977777;28;20054;-58
2023/10/24 11:02:36;;;;;;;14.55;7.72;;;12.10;99.90;;;;;;4984038;28;20065;-57
2023/10/24 11:05:35;;;;;;;12.68;7.88;;;12.20;99.90;;;;;;4984247;28;20502;-59
2023/10/24 11:08:06;;;;;;;11.02;7.75;;;12.30;99.90;;;;;;4971087;28;20043;-57
2023/10/24 11:10:56;;;;;;;13.77;7.88;;;12.50;99.90;;;;;;4974744;28;20490;-58
2023/10/24 11:13:40;;;;;;;15.60;8.35;;;12.60;99.90;;;;;;4985394;28;20070;-58
2023/10/24 11:16:13;;;;;;;18.48;8.60;;;12.70;99.90;;;;;;4984479;28;20053;-57
2023/10/24 11:19:00;;;;;;;11.73;8.65;;;12.80;99.90;;;;;;4986067;28;20062;-57
2023/10/24 11:21:28;;;;;;;17.17;8.35;;;13.00;99.90;;;;;;4982585;28;20042;-59
2023/10/24 11:23:59;;;;;;;15.18;8.25;;;13.10;99.90;;;;;;4989756;28;20073;-59
2023/10/24 11:26:27;;;;;;;15.00;7.95;;;13.20;99.90;;;;;;4991292;28;20050;-59
2023/10/24 11:28:55;;;;;;;12.00;8.30;;;13.30;99.90;;;;;;4984798;28;20054;-59
2023/10/24 11:31:26;;;;;;;15.07;8.98;;;13.50;99.90;;;;;;4977244;28;20065;-59
2023/10/24 11:33:56;;;;;;;10.45;6.82;;;13.50;99.90;;;;;;4981253;28;20050;-57
2023/10/24 11:36:27;;;;;;;10.07;6.97;;;13.60;99.90;;;;;;4979031;28;20035;-59
2023/10/24 11:38:58;;;;;;;11.38;7.38;;;13.70;99.90;;;;;;4990553;28;20050;-58
2023/10/24 11:41:27;;;;;;;13.02;7.28;;;13.70;99.90;;;;;;4986154;28;20053;-58
2023/10/24 11:43:55;;;;;;;13.43;7.97;;;13.70;99.90;;;;;;4977721;28;20050;-57
2023/10/24 11:46:23;;;;;;;12.52;7.75;;;13.70;99.90;;;;;;4981124;28;20495;-59
2023/10/24 11:48:51;;;;;;;16.27;9.02;;;13.70;99.90;;;;;;4981722;28;20047;-58
2023/10/24 11:51:19;;;;;;;15.70;8.23;;;13.70;99.90;;;;;;4981940;28;20039;-59
2023/10/24 11:53:47;;;;;;;14.70;8.43;;;13.70;99.90;;;;;;4983095;28;20051;-58
2023/10/24 11:56:15;;;;;;;16.80;9.35;;;13.60;99.90;;;;;;4976269;28;20054;-59
2023/10/24 11:58:42;;;;;;;14.77;8.95;;;13.70;99.90;;;;;;4983447;28;20515;-58
2023/10/24 12:01:10;;;;;;;14.55;7.95;;;13.70;99.90;;;;;;4978614;28;20138;-58
2023/10/24 12:03:45;;;;;;;17.27;8.40;;;13.70;99.90;;;;;;4987662;28;20066;-57
2023/10/24 12:06:20;;;;;;;11.60;7.80;;;13.70;99.90;;;;;;4990099;28;20047;-59
2023/10/24 12:08:49;;;;;;;15.85;8.85;;;13.70;99.90;;;;;;4986951;28;20042;-58
2023/10/24 12:11:17;;;;;;;14.25;8.90;;;13.70;99.90;;;;;;4970792;28;20063;-59
2023/10/24 12:13:46;;;;;;;21.25;11.02;;;13.70;99.90;;;;;;4979337;28;20406;-57
2023/10/24 12:16:14;;;;;;;22.02;12.60;;;13.80;99.90;;;;;;4988729;28;20049;-58
2023/10/24 12:18:42;;;;;;;19.60;12.07;;;13.90;99.90;;;;;;4986007;28;20043;-57
2023/10/24 12:21:11;;;;;;;18.25;11.45;;;13.80;99.90;;;;;;4988276;28;20042;-57
2023/10/24 12:23:39;;;;;;;17.67;9.70;;;13.70;99.90;;;;;;4981162;28;20412;-58
2023/10/24 12:26:07;;;;;;;14.25;7.47;;;13.50;99.90;;;;;;4970490;28;20362;-58
2023/10/24 12:28:36;;;;;;;13.35;8.65;;;13.40;99.90;;;;;;4983413;28;20516;-57
2023/10/24 12:31:04;;;;;;;11.55;8.18;;;13.40;99.90;;;;;;4981383;28;20042;-58
2023/10/24 12:33:33;;;;;;;17.03;8.60;;;13.40;99.90;;;;;;4984450;28;20047;-58
2023/10/24 12:36:02;;;;;;;18.98;9.32;;;13.60;99.90;;;;;;4973324;28;20293;-59
2023/10/24 12:38:31;;;;;;;14.02;7.75;;;13.90;99.90;;;;;;4983634;28;20057;-58
2023/10/24 12:40:58;;;;;;;11.77;6.45;;;14.20;99.90;;;;;;4987881;28;20050;-59
2023/10/24 12:43:26;;;;;;;9.90;6.70;;;14.40;99.90;;;;;;4986438;28;20057;-59
2023/10/24 12:45:54;;;;;;;10.40;6.45;;;14.40;99.90;;;;;;4984350;28;20047;-58
2023/10/24 12:48:22;;;;;;;13.35;8.02;;;14.40;99.90;;;;;;4977822;28;20066;-57
2023/10/24 12:50:50;;;;;;;15.65;8.50;;;14.40;99.90;;;;;;4977967;28;20039;-57